Time;durP1;ratioP1;P1;durP2;ratioP2;P2;SDS_P1;SDS_P2;PMS_P1;PMS_P2;Temp;Humidity;BMP_temperature;BMP_pressure;BME280_temperature;BME280_humidity;BME280_pressure;Samples;Min_cycle;Max_cycle;Signal;HPM_P1;HPM_P2
2023/11/11 00:01:17;124292440.00;414.31;77791320.00;123666216.00;412.22;76620328.00;;;;;10.60;1.00;;;;;;2297907;39;3590;-85
2023/11/11 00:03:44;1229152.00;4.10;2143.02;127873.00;0.43;221.66;;;;;10.80;1.00;;;;;;2290146;39;3646;-86
2023/11/11 00:06:16;888076.00;2.96;1535.19;119441.00;0.40;207.12;;;;;10.70;1.00;;;;;;2275832;60;1759;-86
2023/11/11 00:11:20;1519549.00;5.07;2679.96;8417.00;0.03;15.21;;;;;10.30;1.00;;;;;;2277447;60;1892;-87
2023/11/11 00:13:47;1152978.00;3.84;2005.43;37039.00;0.12;64.77;;;;;10.10;1.00;;;;;;2275910;60;1543;-86
2023/11/11 00:16:16;996712.00;3.32;1726.65;7746.00;0.03;14.04;;;;;10.40;1.00;;;;;;2275776;60;1420;-84
2023/11/11 00:18:46;591891.00;1.97;1020.22;17195.00;0.06;30.41;;;;;10.40;1.00;;;;;;2275927;60;1595;-87
2023/11/11 00:21:17;658848.00;2.20;1135.95;8337.00;0.03;15.07;;;;;10.20;1.00;;;;;;2276055;60;1554;-87
2023/11/11 00:23:50;615671.00;2.05;1061.29;55145.00;0.18;96.08;;;;;10.00;1.00;;;;;;2275854;60;1533;-86
2023/11/11 00:26:24;882621.00;2.94;1525.62;8116.00;0.03;14.68;;;;;10.00;1.00;;;;;;2275935;60;1497;-87
2023/11/11 00:28:51;205034.00;0.68;354.59;0.00;0.00;0.62;;;;;10.20;1.00;;;;;;2275829;60;1089;-86
2023/11/11 00:31:22;188364.00;0.63;325.89;0.00;0.00;0.62;;;;;10.20;1.00;;;;;;2275888;60;1911;-86
2023/11/11 00:33:51;64730.00;0.22;112.65;0.00;0.00;0.62;;;;;9.80;1.00;;;;;;2275913;60;1422;-87
2023/11/11 00:36:19;50791.00;0.17;88.55;0.00;0.00;0.62;;;;;9.80;1.00;;;;;;2275868;60;1592;-89
2023/11/11 00:38:49;181114.00;0.60;313.41;0.00;0.00;0.62;;;;;9.70;1.00;;;;;;2275818;60;1530;-87
2023/11/11 00:43:57;621718.00;2.07;1071.73;0.00;0.00;0.62;;;;;9.90;1.00;;;;;;2256837;61;1369;-86
2023/11/11 00:46:29;42252.00;0.14;73.78;0.00;0.00;0.62;;;;;9.70;1.00;;;;;;2255475;61;1181;-86
2023/11/11 00:48:56;81514.00;0.27;141.65;0.00;0.00;0.62;;;;;9.70;1.00;;;;;;2255380;61;1508;-87
2023/11/11 00:51:26;141657.00;0.47;245.43;0.00;0.00;0.62;;;;;9.70;1.00;;;;;;2255461;61;1920;-87
2023/11/11 00:53:55;219270.00;0.73;379.09;0.00;0.00;0.62;;;;;9.50;1.00;;;;;;2255222;61;1440;-88
2023/11/11 00:56:23;161801.00;0.54;280.14;0.00;0.00;0.62;;;;;9.50;1.00;;;;;;2255333;61;1679;-88
2023/11/11 00:58:57;153319.00;0.51;265.53;0.00;0.00;0.62;;;;;9.50;1.00;;;;;;2255554;61;979;-85
2023/11/11 01:01:26;103698.00;0.35;179.95;0.00;0.00;0.62;;;;;9.20;1.00;;;;;;2255477;61;1648;-88
2023/11/11 01:03:54;123835.00;0.41;214.70;0.00;0.00;0.62;;;;;9.00;1.00;;;;;;2255471;61;1365;-87
2023/11/11 01:06:21;154454.00;0.51;267.48;0.00;0.00;0.62;;;;;9.20;1.00;;;;;;2255381;61;1903;-87
2023/11/11 01:09:00;54120.00;0.18;94.31;0.00;0.00;0.62;;;;;9.30;1.00;;;;;;2255526;61;1130;-88
2023/11/11 01:11:28;0.00;0.00;0.62;0.00;0.00;0.62;;;;;9.30;1.00;;;;;;2255302;61;2015;-87
2023/11/11 01:13:56;13840.00;0.05;24.60;0.00;0.00;0.62;;;;;9.30;1.00;;;;;;2255391;61;1379;-88
2023/11/11 01:16:24;155571.00;0.52;269.41;0.00;0.00;0.62;;;;;9.30;1.00;;;;;;2261843;40;3624;-86
2023/11/11 01:18:51;117948.00;0.39;204.54;0.00;0.00;0.62;;;;;9.30;1.00;;;;;;2259392;60;1114;-87
2023/11/11 01:21:18;105087.00;0.35;182.35;0.00;0.00;0.62;;;;;9.10;1.00;;;;;;2259201;60;1424;-88
2023/11/11 01:23:48;186332.00;0.62;322.39;0.00;0.00;0.62;;;;;9.00;1.00;;;;;;2257759;60;1380;-89
2023/11/11 01:26:23;218156.00;0.73;377.17;0.00;0.00;0.62;;;;;9.10;1.00;;;;;;2270775;55;3787;-87
2023/11/11 01:28:51;761152.00;2.54;1313.45;49398.00;0.16;86.15;;;;;9.00;1.00;;;;;;2283985;61;1370;-87
2023/11/11 01:31:23;104895.00;0.35;182.02;0.00;0.00;0.62;;;;;8.90;2.50;;;;;;2284491;61;1997;-88
2023/11/11 01:33:51;1170851.00;3.90;2037.61;38153.00;0.13;66.69;;;;;9.00;2.20;;;;;;2278977;61;1241;-87
2023/11/11 01:36:20;492948.00;1.64;849.68;0.00;0.00;0.62;;;;;8.90;2.70;;;;;;2290586;56;3733;-86
2023/11/11 01:38:47;230725.00;0.77;398.80;0.00;0.00;0.62;;;;;9.00;2.20;;;;;;2270797;55;3826;-87
2023/11/11 01:41:14;269142.00;0.90;464.87;0.00;0.00;0.62;;;;;9.10;2.40;;;;;;2271624;61;1523;-87
2023/11/11 01:43:41;190950.00;0.64;330.34;31640.00;0.11;55.42;;;;;8.90;2.40;;;;;;2273323;61;1378;-88
2023/11/11 01:46:08;59635.00;0.20;103.85;0.00;0.00;0.62;;;;;9.20;1.60;;;;;;2275799;61;1009;-88
2023/11/11 01:48:37;154077.00;0.51;266.83;0.00;0.00;0.62;;;;;9.10;2.60;;;;;;2275722;61;1487;-89
2023/11/11 01:51:06;30123.00;0.10;52.80;0.00;0.00;0.62;;;;;9.20;1.00;;;;;;2275819;61;1998;-88
2023/11/11 01:53:38;12767.00;0.04;22.74;0.00;0.00;0.62;;;;;9.30;1.00;;;;;;2275809;61;1263;-87
2023/11/11 01:56:09;52412.00;0.17;91.36;0.00;0.00;0.62;;;;;9.20;1.00;;;;;;2275820;61;1247;-89
2023/11/11 01:58:41;137101.00;0.46;237.57;0.00;0.00;0.62;;;;;9.30;1.00;;;;;;2275702;61;1565;-87
2023/11/11 02:01:12;136006.00;0.45;235.69;0.00;0.00;0.62;;;;;9.20;1.00;;;;;;2275736;61;1023;-88
2023/11/11 02:03:41;24150.00;0.08;42.46;0.00;0.00;0.62;;;;;9.50;1.00;;;;;;2275993;61;1368;-86
2023/11/11 02:06:11;242188.00;0.81;418.51;0.00;0.00;0.62;;;;;9.60;1.00;;;;;;2281680;55;3701;-87
2023/11/11 02:08:42;170254.00;0.57;294.70;0.00;0.00;0.62;;;;;9.50;1.00;;;;;;2280473;60;996;-87
2023/11/11 02:11:10;204690.00;0.68;354.00;0.00;0.00;0.62;;;;;9.50;1.00;;;;;;2280327;60;1919;-87
2023/11/11 02:13:38;32231.00;0.11;56.44;0.00;0.00;0.62;;;;;9.40;1.00;;;;;;2279085;60;1605;-88
2023/11/11 02:18:44;629060.00;2.10;1084.42;0.00;0.00;0.62;;;;;9.30;1.00;;;;;;2278340;60;1367;-87
2023/11/11 02:21:11;104692.00;0.35;181.67;0.00;0.00;0.62;;;;;9.40;1.00;;;;;;2276314;60;1666;-87
2023/11/11 02:23:42;22678.00;0.08;39.91;0.00;0.00;0.62;;;;;9.30;1.00;;;;;;2276400;60;1365;-87
2023/11/11 02:26:10;33559.00;0.11;58.74;0.00;0.00;0.62;;;;;9.00;1.00;;;;;;2276331;60;1118;-86
2023/11/11 02:28:37;165053.00;0.55;285.74;0.00;0.00;0.62;;;;;8.80;1.00;;;;;;2276249;60;1548;-87
2023/11/11 02:31:06;214159.00;0.71;370.29;0.00;0.00;0.62;;;;;9.00;1.00;;;;;;2276183;60;1920;-86
2023/11/11 02:33:51;278534.00;0.93;481.02;0.00;0.00;0.62;;;;;8.90;1.00;;;;;;2276102;60;1586;-88
2023/11/11 02:36:19;241289.00;0.80;416.97;0.00;0.00;0.62;;;;;8.80;1.00;;;;;;2276322;60;1588;-88
2023/11/11 02:38:49;233207.00;0.78;403.07;0.00;0.00;0.62;;;;;8.90;1.00;;;;;;2276372;60;1261;-87
2023/11/11 02:41:21;25607.00;0.09;44.98;0.00;0.00;0.62;;;;;9.10;1.00;;;;;;2276326;60;1142;-87
2023/11/11 02:43:52;217920.00;0.73;376.76;0.00;0.00;0.62;;;;;9.30;1.00;;;;;;2276205;60;1460;-87
2023/11/11 02:46:24;452521.00;1.51;780.12;95301.00;0.32;165.46;;;;;9.30;1.00;;;;;;2276320;60;1644;-87
2023/11/11 02:48:51;310203.00;1.03;535.46;93257.00;0.31;161.93;;;;;9.30;1.00;;;;;;2276250;60;1567;-86
2023/11/11 02:51:27;474236.00;1.58;817.48;95733.00;0.32;166.21;;;;;9.40;1.00;;;;;;2276302;60;1919;-89
2023/11/11 02:53:57;429584.00;1.43;740.67;91561.00;0.31;159.00;;;;;9.30;1.00;;;;;;2276224;60;1999;-88
2023/11/11 02:56:25;452654.00;1.51;780.35;91657.00;0.31;159.17;;;;;9.30;1.00;;;;;;2276342;60;1289;-87
2023/11/11 02:58:56;735205.00;2.45;1268.34;90289.00;0.30;156.81;;;;;9.10;1.00;;;;;;2276239;60;1199;-87
2023/11/11 03:01:27;1049798.00;3.50;1820.87;127079.00;0.42;220.29;;;;;8.80;2.00;;;;;;2276270;60;1573;-88
2023/11/11 03:06:31;1488144.00;4.96;2620.83;117243.00;0.39;203.33;;;;;9.20;1.70;;;;;;2278171;60;1425;-87
2023/11/11 03:09:05;733413.00;2.44;1265.23;0.00;0.00;0.62;;;;;9.20;1.00;;;;;;2276271;60;899;-87
2023/11/11 03:11:35;591019.00;1.97;1018.72;47317.00;0.16;82.55;;;;;9.50;1.00;;;;;;2276149;60;2018;-85
2023/11/11 03:14:07;582889.00;1.94;1004.68;0.00;0.00;0.62;;;;;9.30;1.00;;;;;;2275997;60;1447;-87
2023/11/11 03:16:42;855459.00;2.85;1478.02;105265.00;0.35;182.66;;;;;9.10;1.00;;;;;;2276065;60;1585;-87
2023/11/11 03:19:10;9232.00;0.03;16.62;0.00;0.00;0.62;;;;;9.30;1.00;;;;;;2276237;60;1514;-87
2023/11/11 03:21:48;235887.00;0.79;407.68;39805.00;0.13;69.55;;;;;9.40;1.00;;;;;;2276224;60;1059;-87
2023/11/11 03:24:30;57187.00;0.19;99.61;0.00;0.00;0.62;;;;;9.20;1.00;;;;;;2276200;60;1546;-86
2023/11/11 03:27:06;134067.00;0.45;232.34;0.00;0.00;0.62;;;;;9.40;1.00;;;;;;2276142;60;1472;-89
2023/11/11 03:29:44;235155.00;0.78;406.42;0.00;0.00;0.62;;;;;9.20;1.00;;;;;;2276163;60;1487;-87
2023/11/11 03:32:17;271137.00;0.90;468.30;0.00;0.00;0.62;;;;;8.80;1.00;;;;;;2276055;60;1911;-87
2023/11/11 03:34:54;250196.00;0.83;432.29;0.00;0.00;0.62;;;;;8.80;1.00;;;;;;2275967;60;1660;-87
2023/11/11 03:37:25;144915.00;0.48;251.04;0.00;0.00;0.62;;;;;8.90;1.00;;;;;;2276162;60;1678;-88
2023/11/11 03:39:58;0.00;0.00;0.62;0.00;0.00;0.62;;;;;8.90;1.00;;;;;;2276130;60;1653;-87
2023/11/11 03:42:28;309773.00;1.03;534.72;67476.00;0.22;117.40;;;;;8.70;1.00;;;;;;2276163;60;1091;-87
2023/11/11 03:45:00;286570.00;0.96;494.83;0.00;0.00;0.62;;;;;8.70;1.00;;;;;;2276118;60;1597;-87
2023/11/11 03:47:35;122260.00;0.41;211.98;0.00;0.00;0.62;;;;;8.60;1.00;;;;;;2276141;60;1408;-86
2023/11/11 03:50:15;252922.00;0.84;436.98;28620.00;0.10;50.19;;;;;8.50;1.00;;;;;;2275996;60;1442;-87
2023/11/11 03:52:47;471644.00;1.57;813.02;87649.00;0.29;152.25;;;;;8.50;1.00;;;;;;2275930;60;1998;-87
2023/11/11 03:55:22;465495.00;1.55;802.44;94587.00;0.32;164.23;;;;;8.50;1.00;;;;;;2276033;60;1453;-87
2023/11/11 03:57:59;482136.00;1.61;831.07;92151.00;0.31;160.02;;;;;8.50;1.00;;;;;;2276109;60;1699;-87
2023/11/11 04:00:34;1000737.00;3.34;1733.78;115647.00;0.39;200.57;;;;;8.60;1.00;;;;;;2276130;60;1220;-86
2023/11/11 04:03:07;811060.00;2.70;1400.42;23033.00;0.08;40.52;;;;;8.60;1.00;;;;;;2276053;60;1530;-86
2023/11/11 04:05:39;785697.00;2.62;1356.19;34486.00;0.11;60.35;;;;;8.90;1.00;;;;;;2276352;60;1600;-88
2023/11/11 04:08:23;539645.00;1.80;930.11;11886.00;0.04;21.22;;;;;8.90;1.00;;;;;;2276391;60;1556;-87
2023/11/11 04:11:01;202762.00;0.68;350.68;0.00;0.00;0.62;;;;;8.70;1.00;;;;;;2276179;60;1542;-86
2023/11/11 04:13:35;83394.00;0.28;144.90;0.00;0.00;0.62;;;;;8.60;1.00;;;;;;2276313;60;1932;-88
2023/11/11 04:16:10;169852.00;0.57;294.01;0.00;0.00;0.62;;;;;8.60;1.00;;;;;;2276292;60;1011;-89
2023/11/11 04:18:41;4904.00;0.02;9.12;0.00;0.00;0.62;;;;;8.60;1.00;;;;;;2276337;60;1569;-86
2023/11/11 04:21:29;55144.00;0.18;96.08;0.00;0.00;0.62;;;;;8.80;1.00;;;;;;2276402;60;914;-86
2023/11/11 04:24:00;104436.00;0.35;181.23;0.00;0.00;0.62;;;;;8.90;1.00;;;;;;2276322;60;1416;-86
2023/11/11 04:26:33;173385.00;0.58;300.10;0.00;0.00;0.62;;;;;8.70;1.00;;;;;;2276317;60;1485;-87
2023/11/11 04:29:05;83150.00;0.28;144.48;0.00;0.00;0.62;;;;;8.70;1.20;;;;;;2276338;60;1558;-87
2023/11/11 04:31:36;259550.00;0.87;448.37;0.00;0.00;0.62;;;;;9.00;1.00;;;;;;2276361;60;2018;-86
2023/11/11 04:34:12;123873.00;0.41;214.76;0.00;0.00;0.62;;;;;9.00;1.00;;;;;;2276207;60;1417;-87
2023/11/11 04:36:42;229165.00;0.76;396.11;0.00;0.00;0.62;;;;;8.90;1.00;;;;;;2276263;60;1593;-87
2023/11/11 04:39:18;251936.00;0.84;435.28;0.00;0.00;0.62;;;;;8.90;1.00;;;;;;2276235;60;1435;-87
2023/11/11 04:41:54;96389.00;0.32;167.34;0.00;0.00;0.62;;;;;9.00;1.00;;;;;;2276276;60;1538;-89
2023/11/11 04:44:30;320821.00;1.07;553.71;88763.00;0.30;154.17;;;;;9.00;1.00;;;;;;2276190;60;1518;-87
2023/11/11 04:47:07;366978.00;1.22;633.04;96421.00;0.32;167.39;;;;;9.20;1.00;;;;;;2276282;60;1166;-87
2023/11/11 04:49:41;928651.00;3.10;1606.50;119310.00;0.40;206.89;;;;;8.90;1.00;;;;;;2276135;60;1497;-87
2023/11/11 04:52:14;1320012.00;4.40;2308.78;126026.00;0.42;218.48;;;;;8.80;1.80;;;;;;2276134;60;1911;-88
2023/11/11 04:54:48;1186363.00;3.95;2065.58;64368.00;0.21;112.03;;;;;8.80;2.40;;;;;;2276155;60;1601;-89
2023/11/11 04:57:20;1082617.00;3.61;1879.36;29261.00;0.10;51.30;;;;;8.90;2.30;;;;;;2276246;60;1443;-87
2023/11/11 04:59:53;804855.00;2.68;1389.59;41490.00;0.14;72.47;;;;;8.70;2.60;;;;;;2276224;60;1630;-87
2023/11/11 05:02:20;779821.00;2.60;1345.95;47160.00;0.16;82.27;;;;;8.80;2.80;;;;;;2276234;60;1623;-88
2023/11/11 05:04:53;617918.00;2.06;1065.17;3689.00;0.01;7.01;;;;;8.70;2.90;;;;;;2276092;60;1234;-88
2023/11/11 05:07:25;589206.00;1.96;1015.59;0.00;0.00;0.62;;;;;8.70;2.80;;;;;;2276230;60;1572;-87
2023/11/11 05:09:54;184162.00;0.61;318.66;0.00;0.00;0.62;;;;;8.90;2.20;;;;;;2276201;60;1073;-87
2023/11/11 05:12:33;143737.00;0.48;249.01;0.00;0.00;0.62;;;;;8.80;2.20;;;;;;2276116;60;1998;-87
2023/11/11 05:15:13;40815.00;0.14;71.30;0.00;0.00;0.62;;;;;8.40;3.80;;;;;;2276227;60;1436;-88
2023/11/11 05:17:44;0.00;0.00;0.62;0.00;0.00;0.62;;;;;8.30;4.10;;;;;;2276215;60;1164;-87
2023/11/11 05:20:15;142685.00;0.48;247.20;0.00;0.00;0.62;;;;;8.60;3.60;;;;;;2276090;60;1663;-86
2023/11/11 05:22:46;162909.00;0.54;282.05;0.00;0.00;0.62;;;;;8.60;2.10;;;;;;2276113;60;1458;-86
2023/11/11 05:25:20;167121.00;0.56;289.31;0.00;0.00;0.62;;;;;8.50;2.30;;;;;;2276157;60;1886;-87
2023/11/11 05:28:03;8347.00;0.03;15.09;0.00;0.00;0.62;;;;;8.50;2.90;;;;;;2276114;60;1664;-87
2023/11/11 05:30:34;87034.00;0.29;151.19;0.00;0.00;0.62;;;;;8.50;3.40;;;;;;2276235;60;936;-86
2023/11/11 05:33:05;282650.00;0.94;488.09;32246.00;0.11;56.47;;;;;8.50;2.70;;;;;;2276012;60;2016;-86
2023/11/11 05:35:47;30520.00;0.10;53.48;0.00;0.00;0.62;;;;;8.30;3.10;;;;;;2276114;60;1492;-88
2023/11/11 05:38:17;12206.00;0.04;21.77;0.00;0.00;0.62;;;;;8.20;4.20;;;;;;2276203;60;1496;-88
2023/11/11 05:40:45;297655.00;0.99;513.89;40203.00;0.13;70.24;;;;;8.30;3.50;;;;;;2276777;60;1692;-86
2023/11/11 05:43:24;230799.00;0.77;398.92;0.00;0.00;0.62;;;;;8.50;2.60;;;;;;2276741;60;1475;-88
2023/11/11 05:45:59;183481.00;0.61;317.48;0.00;0.00;0.62;;;;;8.60;1.90;;;;;;2276824;60;1557;-87
2023/11/11 05:48:40;437303.00;1.46;753.94;65797.00;0.22;114.50;;;;;8.60;2.00;;;;;;2276816;60;1542;-88
2023/11/11 05:51:09;829958.00;2.77;1433.42;102294.00;0.34;177.53;;;;;8.40;2.30;;;;;;2276857;60;932;-86
2023/11/11 05:53:47;741076.00;2.47;1278.54;90429.00;0.30;157.05;;;;;8.30;2.90;;;;;;2276629;60;1992;-87
2023/11/11 05:56:24;869536.00;2.90;1502.68;6942.00;0.02;12.65;;;;;8.30;3.60;;;;;;2276728;60;1548;-89
2023/11/11 05:59:03;549945.00;1.83;947.86;2066.00;0.01;4.20;;;;;8.50;2.10;;;;;;2276760;60;1592;-86
2023/11/11 06:04:03;261581.00;0.87;451.87;0.00;0.00;0.62;;;;;8.40;1.00;;;;;;2278100;60;1411;-87
2023/11/11 06:09:05;378727.00;1.26;653.24;0.00;0.00;0.62;;;;;8.70;1.00;;;;;;2278060;60;1316;-87
2023/11/11 06:11:42;146319.00;0.49;253.46;0.00;0.00;0.62;;;;;8.80;1.00;;;;;;2276744;60;995;-89
2023/11/11 06:14:15;62384.00;0.21;108.60;0.00;0.00;0.62;;;;;8.60;1.00;;;;;;2276641;60;1926;-87
2023/11/11 06:16:52;96840.00;0.32;168.12;0.00;0.00;0.62;;;;;8.60;1.00;;;;;;2276694;60;1630;-88
2023/11/11 06:19:32;32446.00;0.11;56.82;0.00;0.00;0.62;;;;;8.70;1.00;;;;;;2276634;60;1674;-87
2023/11/11 06:22:04;97463.00;0.32;169.19;0.00;0.00;0.62;;;;;8.80;1.00;;;;;;2276630;60;1474;-88
2023/11/11 06:24:35;10182.00;0.03;18.26;0.00;0.00;0.62;;;;;9.00;1.00;;;;;;2276604;60;1510;-88
2023/11/11 06:27:15;308212.00;1.03;532.04;19828.00;0.07;34.97;;;;;9.10;1.00;;;;;;2276725;60;1140;-89
2023/11/11 06:29:48;3542.00;0.01;6.76;0.00;0.00;0.62;;;;;8.80;1.00;;;;;;2276748;60;1028;-87
2023/11/11 06:32:23;59086.00;0.20;102.90;0.00;0.00;0.62;;;;;8.60;1.00;;;;;;2276526;60;1976;-88
2023/11/11 06:34:56;410150.00;1.37;707.25;0.00;0.00;0.62;;;;;8.70;1.00;;;;;;2276684;60;1598;-89
2023/11/11 06:37:35;54325.00;0.18;94.67;0.00;0.00;0.62;;;;;8.90;1.00;;;;;;2276555;60;1571;-88
2023/11/11 06:40:09;289242.00;0.96;499.43;92009.00;0.31;159.78;;;;;8.80;1.00;;;;;;2276565;60;1483;-87
2023/11/11 06:47:45;880161.00;2.93;1521.30;85826.00;0.29;149.10;;;;;8.90;1.00;;;;;;2278037;60;1405;-88
2023/11/11 06:50:17;620372.00;2.07;1069.41;151148.00;0.50;261.79;;;;;9.00;1.00;;;;;;2276641;60;1252;-88
2023/11/11 06:52:44;812403.00;2.71;1402.76;121476.00;0.40;210.63;;;;;9.00;1.00;;;;;;2276580;60;2004;-88
2023/11/11 06:55:16;924938.00;3.08;1599.96;118911.00;0.40;206.20;;;;;8.90;1.00;;;;;;2276611;60;1599;-88
2023/11/11 06:57:51;1061438.00;3.54;1841.60;85495.00;0.28;148.53;;;;;9.00;1.00;;;;;;2276604;60;1397;-87
2023/11/11 07:00:27;670226.00;2.23;1155.64;14162.00;0.05;25.16;;;;;9.00;1.00;;;;;;2276649;60;1602;-88
2023/11/11 07:03:05;657133.00;2.19;1132.98;0.00;0.00;0.62;;;;;9.10;1.00;;;;;;2276532;60;1604;-88
2023/11/11 07:05:41;177778.00;0.59;307.66;0.00;0.00;0.62;;;;;9.10;1.00;;;;;;2276578;60;1668;-88
2023/11/11 07:08:14;180901.00;0.60;313.04;0.00;0.00;0.62;;;;;9.00;1.00;;;;;;2276557;60;1505;-87
2023/11/11 07:10:44;95955.00;0.32;166.59;0.00;0.00;0.62;;;;;9.20;1.00;;;;;;2276655;60;1450;-86
2023/11/11 07:13:15;164626.00;0.55;285.01;0.00;0.00;0.62;;;;;9.30;1.00;;;;;;2276447;60;1997;-88
2023/11/11 07:15:49;67406.00;0.22;117.28;0.00;0.00;0.62;;;;;9.10;1.00;;;;;;2276588;60;1691;-86
2023/11/11 07:18:31;232955.00;0.78;402.63;0.00;0.00;0.62;;;;;9.10;1.00;;;;;;2276491;60;1574;-86
2023/11/11 07:21:09;271528.00;0.91;468.97;42595.00;0.14;74.38;;;;;8.90;1.00;;;;;;2276540;60;1618;-87
2023/11/11 07:23:39;13633.00;0.05;24.24;0.00;0.00;0.62;;;;;8.90;1.00;;;;;;2276414;60;1247;-88
2023/11/11 07:26:09;373570.00;1.25;644.37;458.00;0.00;1.41;;;;;8.90;1.00;;;;;;2276431;60;1529;-88
2023/11/11 07:28:48;138929.00;0.46;240.72;0.00;0.00;0.62;;;;;8.80;1.00;;;;;;2276527;60;1076;-88
2023/11/11 07:31:18;297169.00;0.99;513.05;0.00;0.00;0.62;;;;;8.80;1.00;;;;;;2276498;60;1534;-87
2023/11/11 07:33:50;115942.00;0.39;201.08;0.00;0.00;0.62;;;;;9.00;1.00;;;;;;2276483;60;2004;-87
2023/11/11 07:36:18;39575.00;0.13;69.15;0.00;0.00;0.62;;;;;9.00;1.00;;;;;;2276546;60;1810;-87
2023/11/11 07:38:49;190768.00;0.64;330.03;0.00;0.00;0.62;;;;;8.90;1.00;;;;;;2276449;60;1453;-87
2023/11/11 07:41:23;133603.00;0.45;231.54;0.00;0.00;0.62;;;;;9.00;1.00;;;;;;2276448;60;1490;-86
2023/11/11 07:43:53;216654.00;0.72;374.59;0.00;0.00;0.62;;;;;9.00;1.00;;;;;;2276350;60;1615;-88
2023/11/11 07:46:25;116532.00;0.39;202.10;0.00;0.00;0.62;;;;;8.90;1.00;;;;;;2276378;60;1111;-85
2023/11/11 07:49:12;50594.00;0.17;88.21;0.00;0.00;0.62;;;;;8.70;1.00;;;;;;2276500;60;1527;-87
2023/11/11 07:51:49;268349.00;0.89;463.51;88801.00;0.30;154.24;;;;;8.80;1.00;;;;;;2276287;60;1094;-88
2023/11/11 08:17:27;671489.00;2.24;1157.83;0.00;0.00;0.62;;;;;9.60;1.00;;;;;;2298054;39;3473;-87
2023/11/11 08:19:57;310687.00;1.04;536.29;0.00;0.00;0.62;;;;;9.40;1.00;;;;;;2289625;56;3726;-88
2023/11/11 08:35:47;256647.00;0.86;443.38;0.00;0.00;0.62;;;;;9.70;1.00;;;;;;708477;56;2895;-87
2023/11/11 08:53:43;1140173.00;3.80;1982.42;170794.00;0.57;295.63;;;;;10.20;1.00;;;;;;2313688;55;3607;-85
2023/11/11 08:56:17;690452.00;2.30;1190.69;92684.00;0.31;160.94;;;;;10.30;1.00;;;;;;2280198;60;1229;-86
2023/11/11 08:58:52;1388762.00;4.63;2435.50;168777.00;0.56;292.16;;;;;10.00;1.00;;;;;;2307809;39;3551;-88
2023/11/11 09:04:11;1221215.00;4.07;2128.62;61924.00;0.21;107.80;;;;;10.10;1.00;;;;;;1981067;39;3694;-87
2023/11/11 09:09:24;86556.00;0.29;150.36;0.00;0.00;0.62;;;;;10.30;1.00;;;;;;843751;59;2204;-87
2023/11/11 09:11:59;129656.00;0.43;224.74;0.00;0.00;0.62;;;;;10.10;1.00;;;;;;2272104;61;1457;-86
2023/11/11 09:24:43;74704.00;0.25;129.89;0.00;0.00;0.62;;;;;10.60;1.00;;;;;;1113250;39;3302;-86
2023/11/11 09:27:11;267139.00;0.89;461.42;0.00;0.00;0.62;;;;;10.30;1.00;;;;;;2299575;39;3598;-88
2023/11/11 10:08:07;1675436.00;5.58;2977.80;86518.00;0.29;150.29;;;;;11.10;1.00;;;;;;2277956;60;1362;-88
2023/11/11 10:18:32;885116.00;2.95;1529.99;34530.00;0.12;60.42;;;;;11.50;1.00;;;;;;786349;59;3549;-85
2023/11/11 10:21:20;900391.00;3.00;1556.81;51515.00;0.17;89.81;;;;;11.10;1.00;;;;;;2272327;61;1632;-86
2023/11/11 10:24:03;79637.00;0.27;138.41;0.00;0.00;0.62;;;;;11.20;1.00;;;;;;2272284;61;1434;-85
2023/11/11 10:26:42;132431.00;0.44;229.52;0.00;0.00;0.62;;;;;11.50;1.00;;;;;;2272516;61;1500;-84
2023/11/11 10:34:14;873658.00;2.91;1509.90;0.00;0.00;0.62;;;;;11.40;1.00;;;;;;2278219;61;1903;-86
2023/11/11 10:39:21;756715.00;2.52;1305.74;0.00;0.00;0.62;;;;;11.00;1.00;;;;;;2278474;60;1366;-85
2023/11/11 10:42:01;312309.00;1.04;539.08;0.00;0.00;0.62;;;;;11.20;1.00;;;;;;2276327;60;1662;-88
2023/11/11 10:47:00;583702.00;1.95;1006.09;0.00;0.00;0.62;;;;;11.10;1.00;;;;;;2297794;55;3778;-83
2023/11/11 10:49:27;120626.00;0.40;209.16;0.00;0.00;0.62;;;;;11.40;1.00;;;;;;2280065;61;1634;-82
2023/11/11 10:51:56;140372.00;0.47;243.21;0.00;0.00;0.62;;;;;11.90;1.00;;;;;;2279926;61;1469;-81
2023/11/11 10:54:29;55995.00;0.19;97.55;0.00;0.00;0.62;;;;;12.40;1.00;;;;;;2276689;61;2014;-82
2023/11/11 10:57:02;226305.00;0.75;391.19;0.00;0.00;0.62;;;;;12.20;1.00;;;;;;2275511;61;1297;-83
2023/11/11 10:59:31;152803.00;0.51;264.64;0.00;0.00;0.62;;;;;12.30;1.00;;;;;;2275909;61;1424;-82
2023/11/11 11:01:59;32391.00;0.11;56.72;0.00;0.00;0.62;;;;;12.40;1.00;;;;;;2275716;61;1439;-83
2023/11/11 11:04:29;0.00;0.00;0.62;0.00;0.00;0.62;;;;;12.70;1.00;;;;;;2275702;61;1284;-84
2023/11/11 11:10:02;207496.00;0.69;358.83;0.00;0.00;0.62;;;;;13.00;1.00;;;;;;2275673;60;1287;-82
2023/11/11 11:12:38;198748.00;0.66;343.77;0.00;0.00;0.62;;;;;12.70;1.00;;;;;;2275541;61;1109;-82
2023/11/11 11:15:15;39209.00;0.13;68.52;0.00;0.00;0.62;;;;;12.80;1.00;;;;;;2275040;60;1944;-81
2023/11/11 11:17:45;263553.00;0.88;455.26;0.00;0.00;0.62;;;;;12.50;1.00;;;;;;2275497;61;1615;-81
2023/11/11 11:20:18;0.00;0.00;0.62;0.00;0.00;0.62;;;;;12.70;1.00;;;;;;2275470;61;1582;-83
2023/11/11 11:22:47;0.00;0.00;0.62;0.00;0.00;0.62;;;;;12.20;1.00;;;;;;2275065;60;1464;-83
2023/11/11 11:25:50;257672.00;0.86;445.15;16605.00;0.06;29.39;;;;;12.40;1.00;;;;;;2276034;60;1372;-84
2023/11/11 11:28:31;274822.00;0.92;474.63;88384.00;0.29;153.52;;;;;12.90;1.00;;;;;;2276209;60;1566;-84
2023/11/11 11:31:03;483883.00;1.61;834.08;67201.00;0.22;116.92;;;;;13.20;1.00;;;;;;2276346;60;1046;-83
2023/11/11 11:41:10;299240.00;1.00;516.61;0.00;0.00;0.62;;;;;13.70;1.00;;;;;;2278458;60;1515;-87
2023/11/11 11:48:39;428560.00;1.43;738.91;0.00;0.00;0.62;;;;;13.10;1.00;;;;;;2277778;60;1365;-87
2023/11/11 12:01:02;278693.00;0.93;481.29;0.00;0.00;0.62;;;;;13.00;1.00;;;;;;2283142;40;3503;-87
2023/11/11 12:03:29;119608.00;0.40;207.41;0.00;0.00;0.62;;;;;12.90;1.00;;;;;;2283392;60;1562;-87
2023/11/11 12:05:56;65468.00;0.22;113.93;0.00;0.00;0.62;;;;;13.20;1.00;;;;;;2297299;40;3576;-87
2023/11/11 12:08:24;170317.00;0.57;294.81;0.00;0.00;0.62;;;;;13.00;1.00;;;;;;2280266;60;1062;-86
2023/11/11 12:13:21;419200.00;1.40;722.81;0.00;0.00;0.62;;;;;12.60;1.00;;;;;;2278236;60;1400;-88
2023/11/11 12:15:49;0.00;0.00;0.62;0.00;0.00;0.62;;;;;12.90;1.00;;;;;;2276210;60;1639;-87
2023/11/11 12:18:19;51038.00;0.17;88.98;0.00;0.00;0.62;;;;;13.10;1.00;;;;;;2276477;60;1669;-90
2023/11/11 12:25:45;406633.00;1.36;701.21;29489.00;0.10;51.70;;;;;13.50;1.00;;;;;;2277696;61;1154;-88
2023/11/11 12:28:13;135165.00;0.45;234.24;0.00;0.00;0.62;;;;;13.40;1.00;;;;;;2375212;39;3559;-88
2023/11/11 12:30:40;475056.00;1.58;818.89;20650.00;0.07;36.40;;;;;13.60;1.00;;;;;;2341196;55;3790;-90
2023/11/11 12:35:38;1486254.00;4.95;2617.28;211423.00;0.70;365.58;;;;;13.70;1.00;;;;;;2326778;40;3373;-88
2023/11/11 12:38:21;121243216.00;404.14;72200296.00;149550.00;0.50;259.03;;;;;13.60;1.00;;;;;;2284532;60;1021;-87
2023/11/11 12:43:18;1895857.00;6.32;3412.63;87641.00;0.29;152.23;;;;;12.90;1.00;;;;;;2273839;61;1392;-87
2023/11/11 12:45:48;543701.00;1.81;937.10;97060.00;0.32;168.50;;;;;12.90;1.00;;;;;;2272254;61;973;-88
2023/11/11 12:48:16;329024.00;1.10;567.81;85060.00;0.28;147.78;;;;;13.20;1.00;;;;;;2279771;55;3733;-87
2023/11/11 12:50:45;442860.00;1.48;763.50;161586.00;0.54;279.77;;;;;13.40;1.00;;;;;;2280253;60;1651;-87
2023/11/11 12:55:43;287705.00;0.96;496.78;32427.00;0.11;56.78;;;;;13.70;1.00;;;;;;2277979;61;1907;-88
2023/11/11 12:58:21;261445.00;0.87;451.63;21426.00;0.07;37.74;;;;;13.90;1.00;;;;;;2272629;61;1168;-88
2023/11/11 13:03:25;176298.00;0.59;305.11;5686.00;0.02;10.47;;;;;13.70;1.00;;;;;;2277970;60;1407;-89
2023/11/11 13:05:54;96757.00;0.32;167.97;0.00;0.00;0.62;;;;;13.70;1.00;;;;;;2276150;60;1713;-88
2023/11/11 13:08:22;219481.00;0.73;379.45;0.00;0.00;0.62;;;;;13.70;1.00;;;;;;2276132;60;1624;-89
2023/11/11 13:10:52;56326.00;0.19;98.13;0.00;0.00;0.62;;;;;14.10;1.00;;;;;;2276013;60;1645;-89
2023/11/11 13:13:20;26106.00;0.09;45.84;0.00;0.00;0.62;;;;;14.40;1.00;;;;;;2276188;60;1297;-89
2023/11/11 13:15:48;297421.00;0.99;513.49;3909.00;0.01;7.39;;;;;14.40;1.00;;;;;;2276085;60;1927;-89
2023/11/11 13:18:16;22962.00;0.08;40.40;0.00;0.00;0.62;;;;;14.10;1.00;;;;;;2276245;60;1014;-88
2023/11/11 13:20:46;0.00;0.00;0.62;0.00;0.00;0.62;;;;;14.30;1.00;;;;;;2276123;60;1726;-88